sensor_id;sensor_type;location;lat;lon;timestamp;P1;durP1;ratioP1;P2;durP2;ratioP2
63975;SDS011;50167;47.958;21.780;2022-12-18T00:01:16;47.23;;;23.27;;
63975;SDS011;50167;47.958;21.780;2022-12-18T00:03:48;49.98;;;26.30;;
63975;SDS011;50167;47.958;21.780;2022-12-18T00:06:16;46.70;;;23.47;;
63975;SDS011;50167;47.958;21.780;2022-12-18T00:08:43;53.67;;;24.93;;
63975;SDS011;50167;47.958;21.780;2022-12-18T00:11:11;49.00;;;23.60;;
63975;SDS011;50167;47.958;21.780;2022-12-18T00:13:41;43.20;;;20.43;;
63975;SDS011;50167;47.958;21.780;2022-12-18T00:16:10;50.10;;;24.07;;
63975;SDS011;50167;47.958;21.780;2022-12-18T00:18:38;41.20;;;20.53;;
63975;SDS011;50167;47.958;21.780;2022-12-18T00:21:06;49.53;;;22.50;;
63975;SDS011;50167;47.958;21.780;2022-12-18T00:23:35;50.00;;;22.67;;
63975;SDS011;50167;47.958;21.780;2022-12-18T00:26:03;45.10;;;22.23;;
63975;SDS011;50167;47.958;21.780;2022-12-18T00:28:32;44.20;;;21.83;;
63975;SDS011;50167;47.958;21.780;2022-12-18T00:31:02;47.97;;;23.67;;
63975;SDS011;50167;47.958;21.780;2022-12-18T00:33:34;49.60;;;22.63;;
63975;SDS011;50167;47.958;21.780;2022-12-18T00:36:05;47.43;;;22.13;;
63975;SDS011;50167;47.958;21.780;2022-12-18T00:38:35;50.37;;;23.30;;
63975;SDS011;50167;47.958;21.780;2022-12-18T00:41:01;49.27;;;23.30;;
63975;SDS011;50167;47.958;21.780;2022-12-18T00:43:28;52.40;;;24.40;;
63975;SDS011;50167;47.958;21.780;2022-12-18T00:45:54;49.40;;;23.83;;
63975;SDS011;50167;47.958;21.780;2022-12-18T00:48:20;46.60;;;21.47;;
63975;SDS011;50167;47.958;21.780;2022-12-18T00:50:48;54.20;;;24.80;;
63975;SDS011;50167;47.958;21.780;2022-12-18T00:53:15;48.60;;;22.90;;
63975;SDS011;50167;47.958;21.780;2022-12-18T00:55:42;59.97;;;27.90;;
63975;SDS011;50167;47.958;21.780;2022-12-18T00:58:09;52.77;;;26.00;;
63975;SDS011;50167;47.958;21.780;2022-12-18T01:00:36;59.40;;;27.53;;
63975;SDS011;50167;47.958;21.780;2022-12-18T01:03:03;59.17;;;27.37;;
63975;SDS011;50167;47.958;21.780;2022-12-18T01:05:30;61.67;;;27.37;;
63975;SDS011;50167;47.958;21.780;2022-12-18T01:07:58;62.65;;;28.47;;
63975;SDS011;50167;47.958;21.780;2022-12-18T01:10:24;58.97;;;28.03;;
63975;SDS011;50167;47.958;21.780;2022-12-18T01:12:51;55.50;;;28.03;;
63975;SDS011;50167;47.958;21.780;2022-12-18T01:15:17;63.35;;;28.73;;
63975;SDS011;50167;47.958;21.780;2022-12-18T01:17:46;56.47;;;26.00;;
63975;SDS011;50167;47.958;21.780;2022-12-18T01:20:12;61.43;;;30.13;;
63975;SDS011;50167;47.958;21.780;2022-12-18T01:22:39;71.10;;;31.33;;
63975;SDS011;50167;47.958;21.780;2022-12-18T01:25:05;60.77;;;28.97;;
63975;SDS011;50167;47.958;21.780;2022-12-18T01:27:33;59.50;;;28.67;;
63975;SDS011;50167;47.958;21.780;2022-12-18T01:29:59;62.33;;;28.50;;
63975;SDS011;50167;47.958;21.780;2022-12-18T01:32:26;70.10;;;29.80;;
63975;SDS011;50167;47.958;21.780;2022-12-18T01:34:54;61.55;;;29.52;;
63975;SDS011;50167;47.958;21.780;2022-12-18T01:37:20;66.93;;;30.53;;
63975;SDS011;50167;47.958;21.780;2022-12-18T01:39:46;67.60;;;30.67;;
63975;SDS011;50167;47.958;21.780;2022-12-18T01:42:12;61.97;;;27.73;;
63975;SDS011;50167;47.958;21.780;2022-12-18T01:47:44;62.53;;;28.95;;
63975;SDS011;50167;47.958;21.780;2022-12-18T01:50:28;67.80;;;32.10;;
63975;SDS011;50167;47.958;21.780;2022-12-18T01:55:40;62.10;;;28.05;;
63975;SDS011;50167;47.958;21.780;2022-12-18T01:58:15;67.50;;;31.23;;
63975;SDS011;50167;47.958;21.780;2022-12-18T02:00:45;67.60;;;31.65;;
63975;SDS011;50167;47.958;21.780;2022-12-18T02:03:12;73.83;;;32.70;;
63975;SDS011;50167;47.958;21.780;2022-12-18T02:05:45;70.78;;;32.58;;
63975;SDS011;50167;47.958;21.780;2022-12-18T02:08:30;64.67;;;31.27;;
63975;SDS011;50167;47.958;21.780;2022-12-18T02:14:00;78.85;;;36.05;;
63975;SDS011;50167;47.958;21.780;2022-12-18T02:16:43;78.20;;;34.78;;
63975;SDS011;50167;47.958;21.780;2022-12-18T02:19:27;79.67;;;33.10;;
63975;SDS011;50167;47.958;21.780;2022-12-18T02:25:34;78.70;;;33.28;;
63975;SDS011;50167;47.958;21.780;2022-12-18T02:28:01;71.02;;;34.38;;
63975;SDS011;50167;47.958;21.780;2022-12-18T02:30:31;80.62;;;37.17;;
63975;SDS011;50167;47.958;21.780;2022-12-18T02:33:00;67.75;;;33.83;;
63975;SDS011;50167;47.958;21.780;2022-12-18T02:35:31;66.33;;;29.72;;
63975;SDS011;50167;47.958;21.780;2022-12-18T02:38:00;77.47;;;32.65;;
63975;SDS011;50167;47.958;21.780;2022-12-18T02:40:29;78.05;;;38.63;;
63975;SDS011;50167;47.958;21.780;2022-12-18T02:43:02;75.95;;;35.55;;
63975;SDS011;50167;47.958;21.780;2022-12-18T02:45:30;74.75;;;35.23;;
63975;SDS011;50167;47.958;21.780;2022-12-18T02:47:56;76.17;;;36.53;;
63975;SDS011;50167;47.958;21.780;2022-12-18T02:50:26;78.45;;;35.70;;
63975;SDS011;50167;47.958;21.780;2022-12-18T02:58:36;79.12;;;35.13;;
63975;SDS011;50167;47.958;21.780;2022-12-18T03:06:54;79.53;;;36.00;;
63975;SDS011;50167;47.958;21.780;2022-12-18T03:11:55;82.33;;;36.50;;
63975;SDS011;50167;47.958;21.780;2022-12-18T03:14:43;84.10;;;39.05;;
63975;SDS011;50167;47.958;21.780;2022-12-18T03:17:14;79.53;;;35.10;;
63975;SDS011;50167;47.958;21.780;2022-12-18T03:19:44;85.42;;;37.85;;
63975;SDS011;50167;47.958;21.780;2022-12-18T03:22:12;83.90;;;37.55;;
63975;SDS011;50167;47.958;21.780;2022-12-18T03:24:41;85.70;;;39.20;;
63975;SDS011;50167;47.958;21.780;2022-12-18T03:27:09;80.90;;;37.55;;
63975;SDS011;50167;47.958;21.780;2022-12-18T03:29:43;83.27;;;38.30;;
63975;SDS011;50167;47.958;21.780;2022-12-18T03:32:11;74.80;;;37.45;;
63975;SDS011;50167;47.958;21.780;2022-12-18T03:34:44;81.47;;;36.20;;
63975;SDS011;50167;47.958;21.780;2022-12-18T03:37:14;81.60;;;37.03;;
63975;SDS011;50167;47.958;21.780;2022-12-18T03:39:41;83.75;;;35.52;;
63975;SDS011;50167;47.958;21.780;2022-12-18T03:42:09;80.90;;;37.58;;
63975;SDS011;50167;47.958;21.780;2022-12-18T03:47:42;77.78;;;35.10;;
63975;SDS011;50167;47.958;21.780;2022-12-18T03:53:09;76.62;;;34.18;;
63975;SDS011;50167;47.958;21.780;2022-12-18T03:55:46;84.83;;;39.65;;
63975;SDS011;50167;47.958;21.780;2022-12-18T03:58:15;89.37;;;39.90;;
63975;SDS011;50167;47.958;21.780;2022-12-18T04:00:45;80.20;;;41.42;;
63975;SDS011;50167;47.958;21.780;2022-12-18T04:03:13;88.45;;;38.95;;
63975;SDS011;50167;47.958;21.780;2022-12-18T04:05:40;90.97;;;41.53;;
63975;SDS011;50167;47.958;21.780;2022-12-18T04:08:09;80.30;;;33.73;;
63975;SDS011;50167;47.958;21.780;2022-12-18T04:10:35;78.45;;;35.05;;
63975;SDS011;50167;47.958;21.780;2022-12-18T04:13:02;86.12;;;32.95;;
63975;SDS011;50167;47.958;21.780;2022-12-18T04:15:28;81.08;;;33.98;;
63975;SDS011;50167;47.958;21.780;2022-12-18T04:17:55;82.27;;;35.15;;
63975;SDS011;50167;47.958;21.780;2022-12-18T04:20:21;72.22;;;30.32;;
63975;SDS011;50167;47.958;21.780;2022-12-18T04:22:47;95.73;;;36.50;;
63975;SDS011;50167;47.958;21.780;2022-12-18T04:25:13;90.42;;;39.60;;
63975;SDS011;50167;47.958;21.780;2022-12-18T04:27:40;82.57;;;34.05;;
63975;SDS011;50167;47.958;21.780;2022-12-18T04:30:06;92.05;;;38.08;;
63975;SDS011;50167;47.958;21.780;2022-12-18T04:32:33;76.97;;;31.50;;
63975;SDS011;50167;47.958;21.780;2022-12-18T04:35:00;77.75;;;33.70;;
63975;SDS011;50167;47.958;21.780;2022-12-18T04:37:26;87.15;;;35.33;;
63975;SDS011;50167;47.958;21.780;2022-12-18T04:39:52;97.40;;;38.53;;
63975;SDS011;50167;47.958;21.780;2022-12-18T04:42:18;91.45;;;37.75;;
63975;SDS011;50167;47.958;21.780;2022-12-18T04:44:44;84.23;;;35.77;;
63975;SDS011;50167;47.958;21.780;2022-12-18T04:47:10;84.27;;;35.70;;
63975;SDS011;50167;47.958;21.780;2022-12-18T04:49:36;92.95;;;38.05;;
63975;SDS011;50167;47.958;21.780;2022-12-18T04:52:02;88.70;;;35.43;;
63975;SDS011;50167;47.958;21.780;2022-12-18T04:54:29;86.45;;;37.58;;
63975;SDS011;50167;47.958;21.780;2022-12-18T04:56:55;89.73;;;36.93;;
63975;SDS011;50167;47.958;21.780;2022-12-18T04:59:21;95.42;;;37.13;;
63975;SDS011;50167;47.958;21.780;2022-12-18T05:01:47;88.17;;;36.40;;
63975;SDS011;50167;47.958;21.780;2022-12-18T05:04:15;97.80;;;39.73;;
63975;SDS011;50167;47.958;21.780;2022-12-18T05:06:41;77.22;;;32.90;;
63975;SDS011;50167;47.958;21.780;2022-12-18T05:09:07;104.07;;;41.55;;
63975;SDS011;50167;47.958;21.780;2022-12-18T05:11:33;101.60;;;39.43;;
63975;SDS011;50167;47.958;21.780;2022-12-18T05:13:59;99.43;;;40.43;;
63975;SDS011;50167;47.958;21.780;2022-12-18T05:16:25;102.55;;;37.83;;
63975;SDS011;50167;47.958;21.780;2022-12-18T05:18:51;95.62;;;37.13;;
63975;SDS011;50167;47.958;21.780;2022-12-18T05:21:17;90.05;;;36.93;;
63975;SDS011;50167;47.958;21.780;2022-12-18T05:23:45;105.17;;;38.60;;
63975;SDS011;50167;47.958;21.780;2022-12-18T05:26:14;93.92;;;35.33;;
63975;SDS011;50167;47.958;21.780;2022-12-18T05:31:09;101.58;;;38.50;;
63975;SDS011;50167;47.958;21.780;2022-12-18T05:33:35;97.55;;;38.90;;
63975;SDS011;50167;47.958;21.780;2022-12-18T05:36:02;105.92;;;41.37;;
63975;SDS011;50167;47.958;21.780;2022-12-18T05:38:32;85.12;;;31.82;;
63975;SDS011;50167;47.958;21.780;2022-12-18T05:41:00;113.03;;;41.60;;
63975;SDS011;50167;47.958;21.780;2022-12-18T05:43:28;105.40;;;38.88;;
63975;SDS011;50167;47.958;21.780;2022-12-18T05:45:54;103.17;;;37.83;;
63975;SDS011;50167;47.958;21.780;2022-12-18T05:48:22;107.45;;;38.08;;
63975;SDS011;50167;47.958;21.780;2022-12-18T05:50:49;108.65;;;38.05;;
63975;SDS011;50167;47.958;21.780;2022-12-18T05:53:17;102.92;;;41.10;;
63975;SDS011;50167;47.958;21.780;2022-12-18T05:55:45;114.72;;;40.05;;
63975;SDS011;50167;47.958;21.780;2022-12-18T05:58:12;101.60;;;38.80;;
63975;SDS011;50167;47.958;21.780;2022-12-18T06:00:40;105.17;;;40.73;;
63975;SDS011;50167;47.958;21.780;2022-12-18T06:03:10;106.75;;;41.68;;
63975;SDS011;50167;47.958;21.780;2022-12-18T06:05:43;97.45;;;36.38;;
63975;SDS011;50167;47.958;21.780;2022-12-18T06:08:08;91.28;;;32.13;;
63975;SDS011;50167;47.958;21.780;2022-12-18T06:10:35;93.42;;;32.75;;
63975;SDS011;50167;47.958;21.780;2022-12-18T06:13:02;96.37;;;32.10;;
63975;SDS011;50167;47.958;21.780;2022-12-18T06:15:29;106.27;;;38.63;;
63975;SDS011;50167;47.958;21.780;2022-12-18T06:17:55;100.85;;;37.03;;
63975;SDS011;50167;47.958;21.780;2022-12-18T06:20:24;105.70;;;36.98;;
63975;SDS011;50167;47.958;21.780;2022-12-18T06:22:50;102.10;;;36.48;;
63975;SDS011;50167;47.958;21.780;2022-12-18T06:25:16;97.60;;;36.05;;
63975;SDS011;50167;47.958;21.780;2022-12-18T06:27:42;96.28;;;35.98;;
63975;SDS011;50167;47.958;21.780;2022-12-18T06:30:09;88.00;;;34.10;;
63975;SDS011;50167;47.958;21.780;2022-12-18T06:32:36;88.47;;;34.45;;
63975;SDS011;50167;47.958;21.780;2022-12-18T06:35:02;101.78;;;37.30;;
63975;SDS011;50167;47.958;21.780;2022-12-18T06:37:31;92.12;;;36.05;;
63975;SDS011;50167;47.958;21.780;2022-12-18T06:39:57;105.47;;;36.53;;
63975;SDS011;50167;47.958;21.780;2022-12-18T06:42:24;95.85;;;34.18;;
63975;SDS011;50167;47.958;21.780;2022-12-18T06:44:50;92.60;;;35.05;;
63975;SDS011;50167;47.958;21.780;2022-12-18T06:47:16;92.33;;;32.73;;
63975;SDS011;50167;47.958;21.780;2022-12-18T06:49:42;96.80;;;33.93;;
63975;SDS011;50167;47.958;21.780;2022-12-18T06:52:09;96.78;;;34.88;;
63975;SDS011;50167;47.958;21.780;2022-12-18T06:54:35;104.37;;;34.30;;
63975;SDS011;50167;47.958;21.780;2022-12-18T06:57:01;103.90;;;37.53;;
63975;SDS011;50167;47.958;21.780;2022-12-18T06:59:27;105.95;;;37.38;;
63975;SDS011;50167;47.958;21.780;2022-12-18T07:01:53;102.30;;;36.25;;
63975;SDS011;50167;47.958;21.780;2022-12-18T07:04:19;100.43;;;36.77;;
63975;SDS011;50167;47.958;21.780;2022-12-18T07:06:45;99.60;;;35.13;;
63975;SDS011;50167;47.958;21.780;2022-12-18T07:09:11;101.62;;;34.88;;
63975;SDS011;50167;47.958;21.780;2022-12-18T07:11:37;113.53;;;38.03;;
63975;SDS011;50167;47.958;21.780;2022-12-18T07:14:03;109.37;;;41.27;;
63975;SDS011;50167;47.958;21.780;2022-12-18T07:16:29;104.63;;;39.25;;
63975;SDS011;50167;47.958;21.780;2022-12-18T07:18:55;93.47;;;35.10;;
63975;SDS011;50167;47.958;21.780;2022-12-18T07:21:23;100.33;;;35.85;;
63975;SDS011;50167;47.958;21.780;2022-12-18T07:23:50;109.75;;;37.48;;
63975;SDS011;50167;47.958;21.780;2022-12-18T07:26:17;93.78;;;29.98;;
63975;SDS011;50167;47.958;21.780;2022-12-18T07:28:46;92.15;;;32.67;;
63975;SDS011;50167;47.958;21.780;2022-12-18T07:31:14;102.72;;;35.33;;
63975;SDS011;50167;47.958;21.780;2022-12-18T07:33:43;104.53;;;37.83;;
63975;SDS011;50167;47.958;21.780;2022-12-18T07:36:10;99.90;;;35.20;;
63975;SDS011;50167;47.958;21.780;2022-12-18T07:38:37;84.72;;;30.23;;
63975;SDS011;50167;47.958;21.780;2022-12-18T07:41:07;91.00;;;32.67;;
63975;SDS011;50167;47.958;21.780;2022-12-18T07:43:39;99.52;;;37.05;;
63975;SDS011;50167;47.958;21.780;2022-12-18T07:46:07;101.55;;;35.90;;
63975;SDS011;50167;47.958;21.780;2022-12-18T07:48:34;96.85;;;34.75;;
63975;SDS011;50167;47.958;21.780;2022-12-18T07:51:01;80.22;;;31.07;;
63975;SDS011;50167;47.958;21.780;2022-12-18T07:53:29;84.30;;;32.75;;
63975;SDS011;50167;47.958;21.780;2022-12-18T07:55:57;93.15;;;32.10;;
63975;SDS011;50167;47.958;21.780;2022-12-18T07:58:25;80.35;;;28.40;;
63975;SDS011;50167;47.958;21.780;2022-12-18T08:00:52;95.67;;;33.67;;
63975;SDS011;50167;47.958;21.780;2022-12-18T08:03:18;87.02;;;30.32;;
63975;SDS011;50167;47.958;21.780;2022-12-18T08:05:45;82.22;;;32.83;;
63975;SDS011;50167;47.958;21.780;2022-12-18T08:08:11;78.90;;;30.02;;
63975;SDS011;50167;47.958;21.780;2022-12-18T08:10:37;81.30;;;33.25;;
63975;SDS011;50167;47.958;21.780;2022-12-18T08:13:04;85.17;;;30.72;;
63975;SDS011;50167;47.958;21.780;2022-12-18T08:15:31;83.05;;;32.98;;
63975;SDS011;50167;47.958;21.780;2022-12-18T08:17:57;69.13;;;27.77;;
63975;SDS011;50167;47.958;21.780;2022-12-18T08:20:23;75.47;;;26.17;;
63975;SDS011;50167;47.958;21.780;2022-12-18T08:22:49;67.78;;;24.60;;
63975;SDS011;50167;47.958;21.780;2022-12-18T08:25:15;79.55;;;29.02;;
63975;SDS011;50167;47.958;21.780;2022-12-18T08:27:42;70.80;;;26.60;;
63975;SDS011;50167;47.958;21.780;2022-12-18T08:30:08;74.50;;;29.30;;
63975;SDS011;50167;47.958;21.780;2022-12-18T08:32:36;74.87;;;26.73;;
63975;SDS011;50167;47.958;21.780;2022-12-18T08:35:02;73.62;;;25.00;;
63975;SDS011;50167;47.958;21.780;2022-12-18T08:37:29;76.50;;;29.37;;
63975;SDS011;50167;47.958;21.780;2022-12-18T08:39:55;68.13;;;28.57;;
63975;SDS011;50167;47.958;21.780;2022-12-18T08:42:21;74.57;;;27.90;;
63975;SDS011;50167;47.958;21.780;2022-12-18T08:45:06;61.25;;;22.42;;
63975;SDS011;50167;47.958;21.780;2022-12-18T08:47:33;64.53;;;27.10;;
63975;SDS011;50167;47.958;21.780;2022-12-18T08:49:59;59.10;;;22.00;;
63975;SDS011;50167;47.958;21.780;2022-12-18T08:52:25;71.03;;;27.97;;
63975;SDS011;50167;47.958;21.780;2022-12-18T08:55:04;64.03;;;24.77;;
63975;SDS011;50167;47.958;21.780;2022-12-18T08:57:34;65.00;;;25.62;;
63975;SDS011;50167;47.958;21.780;2022-12-18T09:00:00;62.15;;;27.00;;
63975;SDS011;50167;47.958;21.780;2022-12-18T09:02:26;60.47;;;24.97;;
63975;SDS011;50167;47.958;21.780;2022-12-18T09:04:52;64.73;;;25.87;;
63975;SDS011;50167;47.958;21.780;2022-12-18T09:11:20;70.60;;;26.70;;
63975;SDS011;50167;47.958;21.780;2022-12-18T09:13:49;56.83;;;24.95;;
63975;SDS011;50167;47.958;21.780;2022-12-18T09:16:17;72.23;;;28.57;;
63975;SDS011;50167;47.958;21.780;2022-12-18T09:18:45;60.57;;;22.57;;
63975;SDS011;50167;47.958;21.780;2022-12-18T09:21:16;46.23;;;17.13;;
63975;SDS011;50167;47.958;21.780;2022-12-18T09:23:51;70.97;;;30.43;;
63975;SDS011;50167;47.958;21.780;2022-12-18T09:26:20;50.30;;;20.53;;
63975;SDS011;50167;47.958;21.780;2022-12-18T09:28:48;51.20;;;22.23;;
63975;SDS011;50167;47.958;21.780;2022-12-18T09:31:15;55.00;;;22.90;;
63975;SDS011;50167;47.958;21.780;2022-12-18T09:33:43;45.23;;;18.67;;
63975;SDS011;50167;47.958;21.780;2022-12-18T09:36:12;45.47;;;18.27;;
63975;SDS011;50167;47.958;21.780;2022-12-18T09:38:40;51.37;;;24.23;;
63975;SDS011;50167;47.958;21.780;2022-12-18T09:47:06;54.73;;;24.23;;
63975;SDS011;50167;47.958;21.780;2022-12-18T09:49:46;52.70;;;22.47;;
63975;SDS011;50167;47.958;21.780;2022-12-18T09:52:23;48.87;;;20.47;;
63975;SDS011;50167;47.958;21.780;2022-12-18T09:55:08;49.97;;;22.47;;
63975;SDS011;50167;47.958;21.780;2022-12-18T09:57:40;51.10;;;23.70;;
63975;SDS011;50167;47.958;21.780;2022-12-18T10:00:21;53.40;;;25.23;;
63975;SDS011;50167;47.958;21.780;2022-12-18T10:02:56;54.80;;;24.83;;
63975;SDS011;50167;47.958;21.780;2022-12-18T10:05:23;50.85;;;24.60;;
63975;SDS011;50167;47.958;21.780;2022-12-18T10:27:21;58.23;;;25.23;;
63975;SDS011;50167;47.958;21.780;2022-12-18T10:29:45;43.33;;;20.27;;
63975;SDS011;50167;47.958;21.780;2022-12-18T10:32:13;66.13;;;27.93;;
63975;SDS011;50167;47.958;21.780;2022-12-18T10:34:50;52.55;;;24.32;;
63975;SDS011;50167;47.958;21.780;2022-12-18T10:37:20;53.80;;;24.63;;
63975;SDS011;50167;47.958;21.780;2022-12-18T10:42:32;114.27;;;49.80;;
63975;SDS011;50167;47.958;21.780;2022-12-18T10:45:09;75.53;;;32.37;;
63975;SDS011;50167;47.958;21.780;2022-12-18T10:47:43;51.13;;;24.30;;
63975;SDS011;50167;47.958;21.780;2022-12-18T10:50:20;52.53;;;23.70;;
63975;SDS011;50167;47.958;21.780;2022-12-18T10:52:58;43.48;;;22.15;;
63975;SDS011;50167;47.958;21.780;2022-12-18T10:55:38;58.17;;;30.27;;
63975;SDS011;50167;47.958;21.780;2022-12-18T10:58:20;51.67;;;23.93;;
63975;SDS011;50167;47.958;21.780;2022-12-18T11:03:42;53.47;;;26.63;;
63975;SDS011;50167;47.958;21.780;2022-12-18T11:06:18;56.83;;;26.53;;
63975;SDS011;50167;47.958;21.780;2022-12-18T11:08:59;55.70;;;26.70;;
63975;SDS011;50167;47.958;21.780;2022-12-18T11:11:29;48.93;;;23.13;;
63975;SDS011;50167;47.958;21.780;2022-12-18T11:14:22;54.57;;;25.33;;
63975;SDS011;50167;47.958;21.780;2022-12-18T11:16:48;54.80;;;24.07;;
63975;SDS011;50167;47.958;21.780;2022-12-18T11:25:04;48.83;;;22.50;;
63975;SDS011;50167;47.958;21.780;2022-12-18T11:27:29;52.27;;;22.17;;
63975;SDS011;50167;47.958;21.780;2022-12-18T11:33:18;51.90;;;23.50;;
63975;SDS011;50167;47.958;21.780;2022-12-18T11:35:51;49.63;;;22.97;;
63975;SDS011;50167;47.958;21.780;2022-12-18T11:38:38;48.33;;;23.90;;
63975;SDS011;50167;47.958;21.780;2022-12-18T11:50:34;50.27;;;23.43;;
63975;SDS011;50167;47.958;21.780;2022-12-18T11:53:12;43.90;;;22.37;;
63975;SDS011;50167;47.958;21.780;2022-12-18T12:01:28;41.63;;;21.73;;
63975;SDS011;50167;47.958;21.780;2022-12-18T12:10:23;63.17;;;33.87;;
63975;SDS011;50167;47.958;21.780;2022-12-18T12:15:55;57.93;;;29.17;;
63975;SDS011;50167;47.958;21.780;2022-12-18T12:19:03;50.33;;;22.97;;
63975;SDS011;50167;47.958;21.780;2022-12-18T12:24:26;52.10;;;25.67;;
63975;SDS011;50167;47.958;21.780;2022-12-18T12:38:17;65.83;;;28.47;;
63975;SDS011;50167;47.958;21.780;2022-12-18T12:40:46;58.47;;;26.73;;
63975;SDS011;50167;47.958;21.780;2022-12-18T12:43:28;48.53;;;24.80;;
63975;SDS011;50167;47.958;21.780;2022-12-18T12:46:13;52.33;;;24.30;;
63975;SDS011;50167;47.958;21.780;2022-12-18T12:48:44;47.30;;;23.90;;
63975;SDS011;50167;47.958;21.780;2022-12-18T12:54:13;54.10;;;25.67;;
63975;SDS011;50167;47.958;21.780;2022-12-18T12:56:51;57.70;;;26.60;;
63975;SDS011;50167;47.958;21.780;2022-12-18T12:59:28;50.83;;;25.30;;
63975;SDS011;50167;47.958;21.780;2022-12-18T13:02:20;52.43;;;25.17;;
63975;SDS011;50167;47.958;21.780;2022-12-18T13:08:09;54.87;;;26.97;;
63975;SDS011;50167;47.958;21.780;2022-12-18T13:10:42;53.50;;;26.48;;
63975;SDS011;50167;47.958;21.780;2022-12-18T13:13:10;50.13;;;23.50;;
63975;SDS011;50167;47.958;21.780;2022-12-18T13:18:21;56.73;;;27.97;;
63975;SDS011;50167;47.958;21.780;2022-12-18T13:23:33;57.45;;;26.48;;
63975;SDS011;50167;47.958;21.780;2022-12-18T13:34:20;94.43;;;46.47;;
63975;SDS011;50167;47.958;21.780;2022-12-18T13:36:48;71.87;;;33.67;;
63975;SDS011;50167;47.958;21.780;2022-12-18T13:44:38;57.07;;;27.53;;
63975;SDS011;50167;47.958;21.780;2022-12-18T13:50:01;57.43;;;25.90;;
63975;SDS011;50167;47.958;21.780;2022-12-18T13:52:38;48.60;;;23.13;;
63975;SDS011;50167;47.958;21.780;2022-12-18T13:55:06;51.90;;;25.07;;
63975;SDS011;50167;47.958;21.780;2022-12-18T13:57:37;51.87;;;25.70;;
63975;SDS011;50167;47.958;21.780;2022-12-18T14:02:53;53.83;;;25.33;;
63975;SDS011;50167;47.958;21.780;2022-12-18T14:08:01;62.97;;;27.57;;
63975;SDS011;50167;47.958;21.780;2022-12-18T14:10:31;55.67;;;26.07;;
63975;SDS011;50167;47.958;21.780;2022-12-18T14:12:58;56.13;;;27.40;;
63975;SDS011;50167;47.958;21.780;2022-12-18T14:15:33;58.70;;;26.33;;
63975;SDS011;50167;47.958;21.780;2022-12-18T14:18:50;59.20;;;26.53;;
63975;SDS011;50167;47.958;21.780;2022-12-18T14:20:52;72.93;;;31.77;;
63975;SDS011;50167;47.958;21.780;2022-12-18T14:23:41;64.97;;;28.27;;
63975;SDS011;50167;47.958;21.780;2022-12-18T14:26:24;116.63;;;53.13;;
63975;SDS011;50167;47.958;21.780;2022-12-18T14:28:55;73.37;;;35.50;;
63975;SDS011;50167;47.958;21.780;2022-12-18T14:31:45;70.63;;;32.70;;
63975;SDS011;50167;47.958;21.780;2022-12-18T14:34:15;76.77;;;33.03;;
63975;SDS011;50167;47.958;21.780;2022-12-18T14:36:44;70.67;;;30.57;;
63975;SDS011;50167;47.958;21.780;2022-12-18T14:39:21;77.17;;;30.20;;
63975;SDS011;50167;47.958;21.780;2022-12-18T14:41:50;103.13;;;45.73;;
63975;SDS011;50167;47.958;21.780;2022-12-18T14:44:17;74.22;;;35.10;;
63975;SDS011;50167;47.958;21.780;2022-12-18T14:46:48;92.73;;;42.33;;
63975;SDS011;50167;47.958;21.780;2022-12-18T14:52:00;81.13;;;34.83;;
63975;SDS011;50167;47.958;21.780;2022-12-18T14:54:28;90.28;;;40.10;;
63975;SDS011;50167;47.958;21.780;2022-12-18T14:56:58;65.73;;;33.40;;
63975;SDS011;50167;47.958;21.780;2022-12-18T14:59:50;72.93;;;35.03;;
63975;SDS011;50167;47.958;21.780;2022-12-18T15:05:00;70.37;;;30.17;;
63975;SDS011;50167;47.958;21.780;2022-12-18T15:07:40;65.00;;;29.37;;
63975;SDS011;50167;47.958;21.780;2022-12-18T15:10:17;71.50;;;32.90;;
63975;SDS011;50167;47.958;21.780;2022-12-18T15:13:29;72.20;;;32.53;;
63975;SDS011;50167;47.958;21.780;2022-12-18T15:20:52;61.43;;;24.43;;
63975;SDS011;50167;47.958;21.780;2022-12-18T15:24:26;75.25;;;33.60;;
63975;SDS011;50167;47.958;21.780;2022-12-18T15:26:15;78.67;;;32.90;;
63975;SDS011;50167;47.958;21.780;2022-12-18T15:28:45;72.33;;;31.47;;
63975;SDS011;50167;47.958;21.780;2022-12-18T15:31:22;59.17;;;29.80;;
63975;SDS011;50167;47.958;21.780;2022-12-18T15:36:37;66.85;;;29.35;;
63975;SDS011;50167;47.958;21.780;2022-12-18T15:39:04;58.00;;;26.87;;
63975;SDS011;50167;47.958;21.780;2022-12-18T15:41:35;61.37;;;27.22;;
63975;SDS011;50167;47.958;21.780;2022-12-18T15:43:59;66.65;;;27.77;;
63975;SDS011;50167;47.958;21.780;2022-12-18T15:46:26;61.80;;;26.80;;
63975;SDS011;50167;47.958;21.780;2022-12-18T15:48:53;56.08;;;24.50;;
63975;SDS011;50167;47.958;21.780;2022-12-18T15:51:22;56.53;;;25.72;;
63975;SDS011;50167;47.958;21.780;2022-12-18T15:53:53;62.67;;;27.13;;
63975;SDS011;50167;47.958;21.780;2022-12-18T15:56:21;58.83;;;25.57;;
63975;SDS011;50167;47.958;21.780;2022-12-18T15:59:13;67.47;;;30.97;;
63975;SDS011;50167;47.958;21.780;2022-12-18T16:01:43;70.97;;;28.07;;
63975;SDS011;50167;47.958;21.780;2022-12-18T16:04:12;64.35;;;30.30;;
63975;SDS011;50167;47.958;21.780;2022-12-18T16:06:40;70.92;;;28.77;;
63975;SDS011;50167;47.958;21.780;2022-12-18T16:09:07;72.53;;;30.68;;
63975;SDS011;50167;47.958;21.780;2022-12-18T16:11:35;57.75;;;26.93;;
63975;SDS011;50167;47.958;21.780;2022-12-18T16:14:16;76.90;;;34.18;;
63975;SDS011;50167;47.958;21.780;2022-12-18T16:16:47;68.37;;;29.00;;
63975;SDS011;50167;47.958;21.780;2022-12-18T16:19:16;72.47;;;30.65;;
63975;SDS011;50167;47.958;21.780;2022-12-18T16:21:42;80.32;;;35.50;;
63975;SDS011;50167;47.958;21.780;2022-12-18T16:24:19;77.05;;;33.23;;
63975;SDS011;50167;47.958;21.780;2022-12-18T16:26:48;69.97;;;30.52;;
63975;SDS011;50167;47.958;21.780;2022-12-18T16:29:20;60.98;;;25.57;;
63975;SDS011;50167;47.958;21.780;2022-12-18T16:31:56;63.70;;;29.45;;
63975;SDS011;50167;47.958;21.780;2022-12-18T16:34:24;62.30;;;28.62;;
63975;SDS011;50167;47.958;21.780;2022-12-18T16:36:54;57.90;;;25.62;;
63975;SDS011;50167;47.958;21.780;2022-12-18T16:39:21;68.40;;;31.12;;
63975;SDS011;50167;47.958;21.780;2022-12-18T16:41:48;60.23;;;27.02;;
63975;SDS011;50167;47.958;21.780;2022-12-18T16:44:14;58.23;;;26.82;;
63975;SDS011;50167;47.958;21.780;2022-12-18T16:46:40;61.95;;;27.58;;
63975;SDS011;50167;47.958;21.780;2022-12-18T16:49:13;59.08;;;28.10;;
63975;SDS011;50167;47.958;21.780;2022-12-18T16:51:42;60.92;;;28.47;;
63975;SDS011;50167;47.958;21.780;2022-12-18T16:54:08;60.38;;;31.73;;
63975;SDS011;50167;47.958;21.780;2022-12-18T16:56:35;64.32;;;31.73;;
63975;SDS011;50167;47.958;21.780;2022-12-18T16:59:01;70.87;;;34.53;;
63975;SDS011;50167;47.958;21.780;2022-12-18T17:01:28;70.45;;;29.75;;
63975;SDS011;50167;47.958;21.780;2022-12-18T17:03:58;63.38;;;31.23;;
63975;SDS011;50167;47.958;21.780;2022-12-18T17:06:27;65.17;;;30.60;;
63975;SDS011;50167;47.958;21.780;2022-12-18T17:08:59;52.35;;;24.90;;